createdAt,value
2023-03-19T00:00:34.164Z,96671.44
2023-03-19T00:03:01.117Z,96672.06
2023-03-19T00:05:28.032Z,96670.41
2023-03-19T00:07:54.660Z,96670.03
2023-03-19T00:10:21.373Z,96673.75
2023-03-19T00:12:48.002Z,96672.69
2023-03-19T00:15:15.451Z,96674.03
2023-03-19T00:17:43.077Z,96668.41
2023-03-19T00:20:11.822Z,96673.56
2023-03-19T00:22:39.897Z,96676.19
2023-03-19T00:25:08.371Z,96673.47
2023-03-19T00:27:36.565Z,96675.16
2023-03-19T00:30:05.625Z,96681.84
2023-03-19T00:32:34.016Z,96679.34
2023-03-19T00:35:01.343Z,96677.78
2023-03-19T00:37:28.005Z,96675.25
2023-03-19T00:39:55.618Z,96672.94
2023-03-19T00:42:22.277Z,96674.75
2023-03-19T00:44:49.061Z,96684.22
2023-03-19T00:47:15.774Z,96683.94
2023-03-19T00:49:42.394Z,96687.75
2023-03-19T00:52:09.146Z,96692.19
2023-03-19T00:54:36.206Z,96693.88
2023-03-19T00:57:02.797Z,96697.06
2023-03-19T00:59:30.023Z,96696.81
2023-03-19T01:02:06.142Z,96690.72
2023-03-19T01:04:33.283Z,96697.06
2023-03-19T01:07:03.179Z,96687.47
2023-03-19T01:09:29.860Z,96690.72
2023-03-19T01:11:56.931Z,96688.94
2023-03-19T01:14:23.599Z,96689.88
2023-03-19T01:16:50.584Z,96692.88
2023-03-19T01:19:17.346Z,96694.88
2023-03-19T01:21:46.458Z,96686.69
2023-03-19T01:24:16.869Z,96688.09
2023-03-19T01:26:44.942Z,96695.25
2023-03-19T01:29:40.709Z,96695.03
2023-03-19T01:32:16.512Z,96695.53
2023-03-19T01:35:01.846Z,96692.06
2023-03-19T01:37:29.223Z,96696.38
2023-03-19T01:39:56.028Z,96689.22
2023-03-19T01:42:22.937Z,96688.16
2023-03-19T01:45:39.696Z,96688.16
2023-03-19T01:48:59.908Z,96687.44
2023-03-19T01:51:32.164Z,96685.22
2023-03-19T01:54:05.790Z,96677.03
2023-03-19T01:56:39.753Z,96680.88
2023-03-19T01:59:52.085Z,96677.47
2023-03-19T02:02:59.344Z,96683.22
2023-03-19T02:05:49.340Z,96679.53
2023-03-19T02:08:19.057Z,96675.66
2023-03-19T02:10:48.183Z,96673.47
2023-03-19T02:13:15.712Z,96675.25
2023-03-19T02:15:42.532Z,96682.47
2023-03-19T02:18:10.096Z,96686.56
2023-03-19T02:20:41.150Z,96686.69
2023-03-19T02:23:39.849Z,96688.09
2023-03-19T02:26:16.222Z,96698.34
2023-03-19T02:28:45.978Z,96699.97
2023-03-19T02:31:17.057Z,96698.28
2023-03-19T02:33:44.449Z,96702.25
2023-03-19T02:36:17.368Z,96707.81
2023-03-19T02:38:46.569Z,96699.94
2023-03-19T02:41:13.282Z,96699.38
2023-03-19T02:43:43.158Z,96701.16
2023-03-19T02:46:12.928Z,96703.78
2023-03-19T02:48:41.372Z,96700.09
2023-03-19T02:51:08.652Z,96703.56
2023-03-19T02:53:35.506Z,96710.69
2023-03-19T02:56:02.572Z,96706.13
2023-03-19T02:58:29.151Z,96713.81
2023-03-19T03:00:55.931Z,96708.13
2023-03-19T03:03:22.613Z,96721.50
2023-03-19T03:05:49.238Z,96722.34
2023-03-19T03:08:15.857Z,96709.13
2023-03-19T03:10:42.566Z,96713.44
2023-03-19T03:13:09.366Z,96708.66
2023-03-19T03:15:36.042Z,96711.91
2023-03-19T03:18:02.693Z,96701.53
2023-03-19T03:20:29.953Z,96711.38
2023-03-19T03:22:56.595Z,96703.19
2023-03-19T03:25:23.302Z,96702.00
2023-03-19T03:27:49.914Z,96698.53
2023-03-19T03:30:16.994Z,96695.81
2023-03-19T03:32:43.743Z,96696.28
2023-03-19T03:35:10.928Z,96700.69
2023-03-19T03:37:38.160Z,96700.78
2023-03-19T03:40:08.529Z,96701.91
2023-03-19T03:42:37.540Z,96700.63
2023-03-19T03:45:07.333Z,96709.44
2023-03-19T03:47:34.167Z,96708.97
2023-03-19T03:50:00.756Z,96706.13
2023-03-19T03:52:31.486Z,96704.53
2023-03-19T03:54:58.788Z,96702.84
2023-03-19T03:57:26.661Z,96710.81
2023-03-19T03:59:55.705Z,96707.13
2023-03-19T04:02:33.326Z,96713.31
2023-03-19T04:04:59.942Z,96714.81
2023-03-19T04:07:27.139Z,96716.78
2023-03-19T04:09:58.380Z,96716.94
2023-03-19T04:12:25.157Z,96716.78
2023-03-19T04:14:52.141Z,96718.16
2023-03-19T04:17:18.717Z,96716.00
2023-03-19T04:19:45.301Z,96719.91
2023-03-19T04:22:12.093Z,96719.53
2023-03-19T04:24:39.162Z,96712.50
2023-03-19T04:27:07.334Z,96715.75
2023-03-19T04:29:34.813Z,96712.50
2023-03-19T04:32:01.681Z,96716.59
2023-03-19T04:34:28.435Z,96711.94
2023-03-19T04:36:55.035Z,96714.56
2023-03-19T04:39:21.652Z,96715.59
2023-03-19T04:41:49.085Z,96715.50
2023-03-19T04:44:37.754Z,96714.75
2023-03-19T04:47:04.898Z,96713.81
2023-03-19T04:49:42.437Z,96725.66
2023-03-19T04:52:09.435Z,96728.91
2023-03-19T04:54:36.124Z,96735.19
2023-03-19T04:57:03.176Z,96726.22
2023-03-19T04:59:35.334Z,96730.63
2023-03-19T05:02:06.326Z,96735.94
2023-03-19T05:04:35.398Z,96734.16
2023-03-19T05:07:07.333Z,96742.34
2023-03-19T05:09:35.010Z,96741.38
2023-03-19T05:12:01.610Z,96739.50
2023-03-19T05:14:31.630Z,96741.84
2023-03-19T05:17:06.108Z,96745.94
2023-03-19T05:19:45.186Z,96753.84
2023-03-19T05:22:11.905Z,96748.56
2023-03-19T05:24:38.843Z,96760.13
2023-03-19T05:27:05.617Z,96756.56
2023-03-19T05:29:40.950Z,96759.09
2023-03-19T05:32:26.126Z,96758.34
2023-03-19T05:34:53.463Z,96758.97
2023-03-19T05:37:20.064Z,96755.13
2023-03-19T05:39:52.679Z,96748.66
2023-03-19T05:42:19.286Z,96744.78
2023-03-19T05:44:45.991Z,96741.38
2023-03-19T05:47:25.325Z,96737.50
2023-03-19T05:49:55.097Z,96741.16
2023-03-19T05:52:22.134Z,96744.44
2023-03-19T05:54:50.630Z,96754.25
2023-03-19T05:57:32.568Z,96757.41
2023-03-19T06:00:19.088Z,96761.44
2023-03-19T06:02:56.186Z,96761.22
2023-03-19T06:05:41.834Z,96758.44
2023-03-19T06:08:20.693Z,96761.41
2023-03-19T06:11:06.182Z,96756.59
2023-03-19T06:13:34.067Z,96764.19
2023-03-19T06:16:06.989Z,96758.19
2023-03-19T06:18:37.356Z,96769.03
2023-03-19T06:21:10.016Z,96771.03
2023-03-19T06:23:37.008Z,96777.56
2023-03-19T06:26:06.132Z,96780.22
2023-03-19T06:28:40.765Z,96782.94
2023-03-19T06:31:08.032Z,96776.63
2023-03-19T06:33:57.455Z,96783.88
2023-03-19T06:36:29.870Z,96783.00
2023-03-19T06:38:56.752Z,96777.75
2023-03-19T06:41:24.830Z,96779.22
2023-03-19T06:43:52.372Z,96777.34
2023-03-19T06:46:19.195Z,96784.38
2023-03-19T06:48:45.895Z,96788.06
2023-03-19T06:51:12.578Z,96787.56
2023-03-19T06:53:39.828Z,96793.66
2023-03-19T06:56:06.501Z,96793.56
2023-03-19T06:58:33.174Z,96784.47
2023-03-19T07:00:59.873Z,96791.66
2023-03-19T07:03:26.442Z,96791.94
2023-03-19T07:05:53.196Z,96792.78
2023-03-19T07:08:20.414Z,96794.94
2023-03-19T07:10:47.016Z,96792.19
2023-03-19T07:13:13.697Z,96793.75
2023-03-19T07:15:40.505Z,96791.34
2023-03-19T07:18:07.122Z,96787.94
2023-03-19T07:20:34.065Z,96804.50
2023-03-19T07:23:00.779Z,96807.44
2023-03-19T07:25:27.444Z,96807.97
2023-03-19T07:27:56.031Z,96802.81
2023-03-19T07:30:22.860Z,96800.41
2023-03-19T07:32:49.549Z,96812.09
2023-03-19T07:35:16.645Z,96813.75
2023-03-19T07:37:43.290Z,96810.94
2023-03-19T07:40:10.716Z,96808.09
2023-03-19T07:42:38.448Z,96807.97
2023-03-19T07:45:05.977Z,96812.94
2023-03-19T07:47:32.967Z,96808.94
2023-03-19T07:49:59.595Z,96804.81
2023-03-19T07:52:26.585Z,96812.16
2023-03-19T07:54:53.601Z,96811.53
2023-03-19T07:57:20.995Z,96811.41
2023-03-19T07:59:47.635Z,96817.59
2023-03-19T08:02:15.017Z,96830.09
2023-03-19T08:04:42.008Z,96819.34
2023-03-19T08:07:11.034Z,96820.97
2023-03-19T08:09:37.637Z,96820.75
2023-03-19T08:12:04.463Z,96825.56
2023-03-19T08:14:31.367Z,96826.75
2023-03-19T08:16:58.022Z,96826.84
2023-03-19T08:19:24.719Z,96824.34
2023-03-19T08:21:51.312Z,96819.91
2023-03-19T08:24:18.730Z,96825.41
2023-03-19T08:26:45.577Z,96825.25
2023-03-19T08:29:12.580Z,96822.81
2023-03-19T08:31:39.220Z,96822.09
2023-03-19T08:34:06.143Z,96822.09
2023-03-19T08:36:32.794Z,96818.00
2023-03-19T08:38:59.433Z,96820.31
2023-03-19T08:41:26.105Z,96817.03
2023-03-19T08:43:53.590Z,96821.13
2023-03-19T08:46:20.232Z,96820.06
2023-03-19T08:48:46.797Z,96812.34
2023-03-19T08:51:14.730Z,96825.34
2023-03-19T08:53:41.414Z,96819.75
2023-03-19T08:56:08.527Z,96831.59
2023-03-19T08:58:35.167Z,96828.03
2023-03-19T09:01:08.803Z,96828.66
2023-03-19T09:03:35.600Z,96822.19
2023-03-19T09:06:04.489Z,96825.78
2023-03-19T09:08:31.833Z,96835.72
2023-03-19T09:10:58.906Z,96845.19
2023-03-19T09:13:26.202Z,96846.72
2023-03-19T09:15:53.093Z,96848.88
2023-03-19T09:18:25.958Z,96847.09
2023-03-19T09:20:53.964Z,96850.38
2023-03-19T09:23:21.452Z,96854.38
2023-03-19T09:25:48.799Z,96854.75
2023-03-19T09:28:15.690Z,96858.34
2023-03-19T09:30:43.361Z,96855.78
2023-03-19T09:33:10.063Z,96858.25
2023-03-19T09:35:39.683Z,96862.03
2023-03-19T09:38:06.949Z,96869.78
2023-03-19T09:40:44.346Z,96863.75
2023-03-19T09:43:34.519Z,96866.25
2023-03-19T09:46:04.116Z,96864.44
2023-03-19T09:48:36.458Z,96867.72
2023-03-19T09:51:07.910Z,96876.13
2023-03-19T09:53:35.656Z,96875.53
2023-03-19T09:56:05.682Z,96868.22
2023-03-19T09:58:35.085Z,96864.47
2023-03-19T10:01:03.009Z,96871.56
2023-03-19T10:03:56.446Z,96868.44
2023-03-19T10:06:26.798Z,96868.56
2023-03-19T10:09:15.668Z,96868.41
2023-03-19T10:12:01.316Z,96867.41
2023-03-19T10:14:45.535Z,96862.56
2023-03-19T10:17:19.226Z,96861.41
2023-03-19T10:19:53.469Z,96864.34
2023-03-19T10:22:29.339Z,96860.09
2023-03-19T10:24:57.957Z,96865.59
2023-03-19T10:27:28.561Z,96873.53
2023-03-19T10:29:56.029Z,96867.34
2023-03-19T10:32:38.874Z,96868.22
2023-03-19T10:35:16.712Z,96866.59
2023-03-19T10:37:43.712Z,96873.69
2023-03-19T10:40:24.403Z,96872.50
2023-03-19T10:42:54.047Z,96873.97
2023-03-19T10:45:33.171Z,96884.66
2023-03-19T10:48:02.890Z,96889.78
2023-03-19T10:50:32.349Z,96904.00
2023-03-19T10:53:05.614Z,96906.19
2023-03-19T10:55:33.154Z,96916.72
2023-03-19T10:58:16.771Z,96919.97
2023-03-19T11:00:48.154Z,96923.78
2023-03-19T11:03:40.660Z,96925.72
2023-03-19T11:06:23.565Z,96920.16
2023-03-19T11:08:53.597Z,96928.31
2023-03-19T11:12:03.219Z,96927.81
2023-03-19T11:14:36.110Z,96931.19
2023-03-19T11:17:07.514Z,96932.56
2023-03-19T11:19:41.701Z,96922.88
2023-03-19T11:22:09.306Z,96927.09
2023-03-19T11:24:41.136Z,96918.41
2023-03-19T11:27:09.978Z,96914.03
2023-03-19T11:29:41.997Z,96913.66
2023-03-19T11:32:39.083Z,96918.03
2023-03-19T11:35:13.265Z,96915.81
2023-03-19T11:37:51.927Z,96915.69
2023-03-19T11:40:41.943Z,96913.34
2023-03-19T11:43:30.666Z,96911.53
2023-03-19T11:46:11.414Z,96909.22
2023-03-19T11:48:43.841Z,96908.91
2023-03-19T11:51:19.196Z,96908.13
2023-03-19T11:54:26.412Z,96906.75
2023-03-19T11:56:55.944Z,96903.84
2023-03-19T11:59:30.358Z,96902.72
2023-03-19T12:02:02.678Z,96905.75
2023-03-19T12:05:00.304Z,96891.69
2023-03-19T12:07:42.487Z,96897.44
2023-03-19T12:10:35.193Z,96892.88
2023-03-19T12:13:13.439Z,96903.16
2023-03-19T12:16:08.589Z,96897.16
2023-03-19T12:19:12.396Z,96898.53
2023-03-19T12:21:57.226Z,96896.28
2023-03-19T12:24:52.676Z,96895.25
2023-03-19T12:27:34.423Z,96889.50
2023-03-19T12:30:13.362Z,96895.66
2023-03-19T12:33:02.110Z,96894.09
2023-03-19T12:35:38.521Z,96893.31
2023-03-19T12:38:20.276Z,96895.63
2023-03-19T12:41:07.850Z,96890.75
2023-03-19T12:43:43.179Z,96890.50
2023-03-19T12:46:09.744Z,96898.84
2023-03-19T12:48:44.425Z,96893.06
2023-03-19T12:51:15.019Z,96888.63
2023-03-19T12:53:53.961Z,96898.13
2023-03-19T12:56:47.727Z,96895.38
2023-03-19T12:59:20.758Z,96885.88
2023-03-19T13:01:57.449Z,96881.28
2023-03-19T13:04:29.976Z,96886.09
2023-03-19T13:07:00.534Z,96873.91
2023-03-19T13:09:39.106Z,96880.78
2023-03-19T13:12:28.133Z,96877.50
2023-03-19T13:15:23.618Z,96874.72
2023-03-19T13:17:59.856Z,96872.06
2023-03-19T13:20:51.004Z,96876.22
2023-03-19T13:23:27.330Z,96871.38
2023-03-19T13:25:57.096Z,96883.69
2023-03-19T13:28:28.397Z,96876.47
2023-03-19T13:31:18.168Z,96877.06
2023-03-19T13:34:07.882Z,96876.34
2023-03-19T13:36:41.166Z,96869.84
2023-03-19T13:39:34.872Z,96871.53
2023-03-19T13:42:24.254Z,96876.44
2023-03-19T13:45:03.166Z,96874.00
2023-03-19T13:47:32.266Z,96872.19
2023-03-19T13:50:19.014Z,96868.13
2023-03-19T13:52:49.604Z,96866.63
2023-03-19T13:55:25.787Z,96870.59
2023-03-19T13:58:12.119Z,96868.81
2023-03-19T14:00:41.491Z,96863.78
2023-03-19T14:03:19.658Z,96869.22
2023-03-19T14:05:48.643Z,96867.75
2023-03-19T14:08:23.291Z,96855.16
2023-03-19T14:10:53.473Z,96852.22
2023-03-19T14:13:24.682Z,96846.38
2023-03-19T14:15:53.246Z,96846.09
2023-03-19T14:18:24.683Z,96847.28
2023-03-19T14:21:03.202Z,96841.06
2023-03-19T14:23:42.692Z,96840.38
2023-03-19T14:26:26.090Z,96829.72
2023-03-19T14:29:04.830Z,96830.56
2023-03-19T14:31:42.757Z,96839.69
2023-03-19T14:34:12.131Z,96839.25
2023-03-19T14:36:44.458Z,96835.22
2023-03-19T14:39:27.526Z,96845.44
2023-03-19T14:42:01.313Z,96849.81
2023-03-19T14:44:39.772Z,96845.09
2023-03-19T14:47:28.717Z,96846.56
2023-03-19T14:50:21.736Z,96846.59
2023-03-19T14:53:15.042Z,96841.03
2023-03-19T14:55:42.237Z,96850.38
2023-03-19T14:58:12.462Z,96849.09
2023-03-19T15:00:49.897Z,96846.00
2023-03-19T15:03:37.179Z,96845.72
2023-03-19T15:06:06.749Z,96849.63
2023-03-19T15:08:37.200Z,96848.97
2023-03-19T15:11:18.611Z,96836.75
2023-03-19T15:13:56.008Z,96845.53
2023-03-19T15:16:33.634Z,96842.03
2023-03-19T15:19:00.974Z,96843.84
2023-03-19T15:21:30.786Z,96839.94
2023-03-19T15:23:58.079Z,96853.81
2023-03-19T15:26:33.550Z,96856.00
2023-03-19T15:29:00.948Z,96849.44
2023-03-19T15:31:53.981Z,96855.69
2023-03-19T15:34:29.327Z,96860.03
2023-03-19T15:37:15.819Z,96849.59
2023-03-19T15:39:50.810Z,96851.97
2023-03-19T15:42:21.676Z,96856.31
2023-03-19T15:44:55.476Z,96867.72
2023-03-19T15:47:27.556Z,96867.50
2023-03-19T15:50:01.882Z,96872.63
2023-03-19T15:52:32.276Z,96865.53
2023-03-19T15:55:01.227Z,96874.75
2023-03-19T15:57:28.939Z,96879.19
2023-03-19T15:59:56.686Z,96878.13
2023-03-19T16:02:30.696Z,96879.38
2023-03-19T16:07:45.171Z,96884.19
2023-03-19T16:10:42.281Z,96877.91
2023-03-19T16:13:29.402Z,96890.50
2023-03-19T16:16:01.572Z,96883.72
2023-03-19T16:18:31.760Z,96896.22
2023-03-19T16:21:16.685Z,96891.38
2023-03-19T16:23:52.732Z,96892.56
2023-03-19T16:26:22.793Z,96899.72
2023-03-19T16:29:15.028Z,96901.50
2023-03-19T16:31:45.942Z,96909.69
2023-03-19T16:34:26.051Z,96908.41
2023-03-19T16:36:52.739Z,96910.44
2023-03-19T16:39:34.717Z,96909.41
2023-03-19T16:42:13.306Z,96904.66
2023-03-19T16:44:42.047Z,96915.91
2023-03-19T16:47:13.442Z,96911.78
2023-03-19T16:49:40.563Z,96920.91
2023-03-19T16:52:15.993Z,96917.59
2023-03-19T16:54:43.270Z,96923.22
2023-03-19T16:57:15.925Z,96924.28
2023-03-19T16:59:42.850Z,96926.28
2023-03-19T17:02:11.695Z,96938.22
2023-03-19T17:04:38.329Z,96938.13
2023-03-19T17:07:05.868Z,96942.22
2023-03-19T17:09:32.655Z,96952.34
2023-03-19T17:12:01.806Z,96954.59
2023-03-19T17:14:29.961Z,96963.22
2023-03-19T17:16:57.434Z,96964.72
2023-03-19T17:19:28.006Z,96972.91
2023-03-19T17:21:59.181Z,96969.50
2023-03-19T17:24:34.583Z,96972.13
2023-03-19T17:27:03.560Z,96977.44
2023-03-19T17:29:31.071Z,96981.00
2023-03-19T17:32:02.125Z,96974.03
2023-03-19T17:34:33.875Z,96976.13
2023-03-19T17:37:03.184Z,96980.00
2023-03-19T17:39:31.561Z,96975.88
2023-03-19T17:41:59.221Z,96982.09
2023-03-19T17:44:26.130Z,96990.06
2023-03-19T17:46:54.805Z,96991.00
2023-03-19T17:49:24.461Z,96986.06
2023-03-19T17:51:52.159Z,96983.31
2023-03-19T17:54:19.676Z,96985.84
2023-03-19T17:56:46.922Z,96980.59
2023-03-19T17:59:14.253Z,96986.91
2023-03-19T18:01:47.322Z,96986.31
2023-03-19T18:04:17.906Z,96993.75
2023-03-19T18:06:49.116Z,96994.06
2023-03-19T18:09:21.873Z,96994.97
2023-03-19T18:11:49.709Z,96994.56
2023-03-19T18:14:16.508Z,96999.69
2023-03-19T18:16:43.621Z,97003.34
2023-03-19T18:19:21.271Z,97008.38
2023-03-19T18:21:48.133Z,97006.59
2023-03-19T18:24:15.237Z,97017.66
2023-03-19T18:26:41.975Z,97018.19
2023-03-19T18:29:09.340Z,97021.03
2023-03-19T18:31:37.275Z,97011.22
2023-03-19T18:34:07.595Z,97024.50
2023-03-19T18:36:35.572Z,97021.16
2023-03-19T18:39:02.525Z,97025.34
2023-03-19T18:41:29.777Z,97036.59
2023-03-19T18:44:07.146Z,97040.56
2023-03-19T18:46:36.018Z,97048.78
2023-03-19T18:49:06.541Z,97051.06
2023-03-19T18:51:33.563Z,97051.88
2023-03-19T18:54:00.723Z,97055.06
2023-03-19T18:56:31.090Z,97058.34
2023-03-19T18:58:58.963Z,97068.91
2023-03-19T19:01:27.428Z,97064.94
2023-03-19T19:03:54.960Z,97074.38
2023-03-19T19:06:45.996Z,97084.75
2023-03-19T19:09:14.311Z,97083.13
2023-03-19T19:11:44.482Z,97087.28
2023-03-19T19:14:23.288Z,97081.66
2023-03-19T19:16:51.466Z,97081.94
2023-03-19T19:19:23.927Z,97089.56
2023-03-19T19:21:52.063Z,97090.09
2023-03-19T19:24:19.683Z,97091.13
2023-03-19T19:26:51.063Z,97085.66
2023-03-19T19:29:26.955Z,97083.66
2023-03-19T19:31:54.848Z,97088.66
2023-03-19T19:34:22.651Z,97098.97
2023-03-19T19:36:51.177Z,97097.13
2023-03-19T19:39:18.390Z,97097.88
2023-03-19T19:41:46.835Z,97099.50
2023-03-19T19:44:20.957Z,97103.19
2023-03-19T19:46:48.128Z,97107.94
2023-03-19T19:49:15.281Z,97109.25
2023-03-19T19:51:41.895Z,97116.41
2023-03-19T19:54:08.564Z,97121.63
2023-03-19T19:56:35.273Z,97118.34
2023-03-19T19:59:05.511Z,97126.00
2023-03-19T20:01:32.142Z,97133.94
2023-03-19T20:03:58.837Z,97128.53
2023-03-19T20:06:25.757Z,97130.25
2023-03-19T20:08:53.042Z,97129.19
2023-03-19T20:11:24.441Z,97129.03
2023-03-19T20:13:54.664Z,97137.59
2023-03-19T20:16:24.161Z,97137.59
2023-03-19T20:18:53.769Z,97139.97
2023-03-19T20:21:21.623Z,97152.28
2023-03-19T20:23:53.135Z,97149.75
2023-03-19T20:26:23.147Z,97147.44
2023-03-19T20:28:51.074Z,97152.75
2023-03-19T20:31:31.539Z,97152.94
2023-03-19T20:33:58.645Z,97156.63
2023-03-19T20:36:26.906Z,97156.69
2023-03-19T20:38:54.067Z,97155.00
2023-03-19T20:41:23.772Z,97161.53
2023-03-19T20:43:51.742Z,97171.25
2023-03-19T20:46:20.704Z,97178.22
2023-03-19T20:48:47.933Z,97170.38
2023-03-19T20:51:22.784Z,97169.13
2023-03-19T20:53:51.287Z,97180.81
2023-03-19T20:56:21.070Z,97183.03
2023-03-19T20:58:48.347Z,97185.56
2023-03-19T21:01:18.491Z,97190.03
2023-03-19T21:04:11.441Z,97186.25
2023-03-19T21:06:52.595Z,97195.56
2023-03-19T21:09:20.214Z,97195.06
2023-03-19T21:11:49.153Z,97194.72
2023-03-19T21:14:18.801Z,97200.16
2023-03-19T21:16:45.413Z,97204.78
2023-03-19T21:19:12.659Z,97203.09
2023-03-19T21:21:39.572Z,97200.91
2023-03-19T21:24:19.301Z,97206.50
2023-03-19T21:26:46.512Z,97206.84
2023-03-19T21:29:19.339Z,97206.59
2023-03-19T21:31:46.109Z,97203.38
2023-03-19T21:34:14.451Z,97203.28
2023-03-19T21:36:41.840Z,97202.38
2023-03-19T21:39:08.458Z,97211.34
2023-03-19T21:41:36.198Z,97206.91
2023-03-19T21:44:07.566Z,97207.75
2023-03-19T21:46:35.339Z,97208.19
2023-03-19T21:49:02.082Z,97210.38
2023-03-19T21:51:29.709Z,97203.66
2023-03-19T21:53:56.593Z,97201.44
2023-03-19T21:56:32.702Z,97195.16
2023-03-19T21:59:10.765Z,97202.28
2023-03-19T22:01:37.323Z,97205.66
2023-03-19T22:04:04.072Z,97202.53
2023-03-19T22:06:30.666Z,97201.97
2023-03-19T22:08:57.620Z,97195.78
2023-03-19T22:11:29.296Z,97201.59
2023-03-19T22:14:12.778Z,97206.41
2023-03-19T22:16:39.832Z,97199.28
2023-03-19T22:19:06.512Z,97199.03
2023-03-19T22:21:34.516Z,97199.53
2023-03-19T22:24:01.098Z,97200.88
2023-03-19T22:26:30.886Z,97197.88
2023-03-19T22:29:01.105Z,97199.66
2023-03-19T22:31:28.925Z,97199.84
2023-03-19T22:33:55.984Z,97205.53
2023-03-19T22:36:22.680Z,97196.81
2023-03-19T22:38:49.433Z,97200.94
2023-03-19T22:41:22.726Z,97195.53
2023-03-19T22:43:49.697Z,97187.38
2023-03-19T22:46:18.684Z,97192.63
2023-03-19T22:48:48.101Z,97186.53
2023-03-19T22:51:17.302Z,97189.44
2023-03-19T22:53:44.947Z,97188.72
2023-03-19T22:56:12.721Z,97184.50
2023-03-19T22:58:40.280Z,97192.72
2023-03-19T23:01:34.911Z,97191.25
2023-03-19T23:04:30.235Z,97189.59
2023-03-19T23:06:58.591Z,97196.06
2023-03-19T23:09:28.103Z,97199.63
2023-03-19T23:11:54.950Z,97203.69
2023-03-19T23:14:31.141Z,97199.94
2023-03-19T23:17:03.980Z,97196.97
2023-03-19T23:19:33.541Z,97197.56
2023-03-19T23:22:02.497Z,97191.94
2023-03-19T23:24:30.650Z,97194.97
2023-03-19T23:26:59.133Z,97202.50
2023-03-19T23:29:32.391Z,97205.78
2023-03-19T23:31:59.054Z,97213.28
2023-03-19T23:34:26.973Z,97212.16
2023-03-19T23:36:53.606Z,97204.53
2023-03-19T23:39:21.165Z,97215.03
2023-03-19T23:41:52.790Z,97214.88
2023-03-19T23:44:19.536Z,97206.72
2023-03-19T23:46:48.616Z,97217.06
2023-03-19T23:49:22.510Z,97218.84
2023-03-19T23:51:49.105Z,97216.22
2023-03-19T23:54:39.138Z,97216.97
2023-03-19T23:57:08.392Z,97218.56
2023-03-19T23:59:38.079Z,97214.16
